createdAt,value
2019-04-11T00:00:48.028Z,12.4
2019-04-11T00:10:47.032Z,13.2
2019-04-11T00:20:46.435Z,12.9
2019-04-11T00:30:45.095Z,13.2
2019-04-11T00:40:44.126Z,12.6
2019-04-11T00:50:43.393Z,13.1
2019-04-11T01:00:42.958Z,13.1
2019-04-11T01:10:41.762Z,13.1
2019-04-11T01:24:25.991Z,13
2019-04-11T01:30:11.677Z,12.8
2019-04-11T01:41:00.794Z,12.6
2019-04-11T01:51:01.107Z,12.7
2019-04-11T02:00:59.216Z,13.2
2019-04-11T02:10:59.321Z,12.7
2019-04-11T02:16:35.184Z,12.5
2019-04-11T02:26:35.515Z,12.4
2019-04-11T02:33:26.732Z,12.9
2019-04-11T02:43:25.605Z,13.2
2019-04-11T02:53:25.817Z,12.5
2019-04-11T03:03:23.163Z,12.6
2019-04-11T03:13:23.266Z,13
2019-04-11T03:23:23.088Z,12.5
2019-04-11T03:43:37.509Z,13.1
2019-04-11T03:53:29.220Z,12.8
2019-04-11T04:03:26.787Z,12.8
2019-04-11T04:13:26.396Z,12.5
2019-04-11T04:23:24.856Z,12.5
2019-04-11T04:33:23.725Z,12.9
2019-04-11T04:43:22.647Z,12.5
2019-04-11T04:53:23.381Z,13
2019-04-11T05:03:22.171Z,12.8
2019-04-11T05:13:21.503Z,12.9
2019-04-11T05:23:19.321Z,12.5
2019-04-11T05:33:18.533Z,12.8
2019-04-11T05:43:17.779Z,13
2019-04-11T05:50:34.041Z,12.5
2019-04-11T06:00:32.588Z,12.9
2019-04-11T06:10:31.545Z,13.2
2019-04-11T06:20:31.292Z,13.1
2019-04-11T06:30:30.466Z,12.5
2019-04-11T06:40:29.283Z,12.5
2019-04-11T06:50:28.379Z,13.2
2019-04-11T07:01:05.404Z,12.9
2019-04-11T07:11:03.486Z,13.4
2019-04-11T07:21:02.970Z,13.1
2019-04-11T07:31:02.386Z,13.5
2019-04-11T07:41:01.123Z,12.7
2019-04-11T07:51:00.335Z,12.5
2019-04-11T08:00:59.548Z,13.3
2019-04-11T08:10:58.838Z,13.1
2019-04-11T08:20:58.138Z,13.2
2019-04-11T08:30:57.441Z,12.7
2019-04-11T08:40:56.730Z,12.6
2019-04-11T08:50:56.020Z,13.2
2019-04-11T09:00:57.342Z,13.1
2019-04-11T09:10:54.488Z,13.4
2019-04-11T09:20:53.935Z,12.9
2019-04-11T09:30:52.902Z,13.3
2019-04-11T09:40:52.187Z,13.2
2019-04-11T09:50:51.333Z,13.6
2019-04-11T10:00:51.143Z,13.7
2019-04-11T10:10:49.745Z,13.9
2019-04-11T10:20:48.958Z,14.3
2019-04-11T10:30:48.308Z,14.6
2019-04-11T10:40:48.216Z,14.2
2019-04-11T10:50:46.675Z,14.3
2019-04-11T11:00:45.800Z,14.4
2019-04-11T11:10:45.879Z,13.8
2019-04-11T11:20:48.809Z,14.7
2019-04-11T11:30:43.426Z,14.7
2019-04-11T11:40:44.011Z,14.4
2019-04-11T11:50:42.697Z,14.5
2019-04-11T12:00:41.057Z,14.4
2019-04-11T12:10:41.552Z,14
2019-04-11T12:20:44.361Z,14.4
2019-04-11T12:30:39.761Z,14.2
2019-04-11T12:40:37.892Z,14.4
2019-04-11T12:50:37.093Z,13.9
2019-04-11T13:00:36.302Z,14.3
2019-04-11T13:10:35.520Z,14.3
2019-04-11T13:20:34.723Z,14.1
2019-04-11T13:30:33.943Z,14.7
2019-04-11T13:40:33.144Z,14
2019-04-11T13:50:32.357Z,14.6
2019-04-11T14:00:31.564Z,13.8
2019-04-11T14:10:31.654Z,14.7
2019-04-11T14:20:30.366Z,13.3
2019-04-11T14:30:29.180Z,14.5
2019-04-11T14:40:28.388Z,14.7
2019-04-11T14:50:27.599Z,13.5
2019-04-11T15:00:26.812Z,13.3
2019-04-11T15:10:26.021Z,13.6
2019-04-11T15:20:25.230Z,13.5
2019-04-11T15:30:24.445Z,13.2
2019-04-11T15:40:23.644Z,13.3
2019-04-11T15:50:22.859Z,12.9
2019-04-11T16:00:22.072Z,12.7
2019-04-11T16:10:21.288Z,12.7
2019-04-11T16:20:20.490Z,13
2019-04-11T16:30:19.692Z,13
2019-04-11T16:40:20.831Z,13.3
2019-04-11T16:50:18.119Z,12.5
2019-04-11T17:00:20.216Z,12.5
2019-04-11T17:10:16.532Z,12.7
2019-04-11T17:20:15.751Z,13.3
2019-04-11T17:30:14.962Z,13.1
2019-04-11T17:40:14.170Z,13
2019-04-11T17:50:13.376Z,12.9
2019-04-11T18:00:12.597Z,13.1
2019-04-11T18:10:11.805Z,12.5
2019-04-11T18:20:11.014Z,12.8
2019-04-11T18:30:10.226Z,12.5
2019-04-11T18:40:10.405Z,12.5
2019-04-11T18:50:08.649Z,12.8
2019-04-11T19:00:08.162Z,12.8
2019-04-11T19:10:07.080Z,12.7
2019-04-11T19:20:06.287Z,13
2019-04-11T19:30:05.485Z,13
2019-04-11T19:40:04.694Z,12.7
2019-04-11T19:50:17.313Z,12.8
2019-04-11T20:00:16.530Z,12.8
2019-04-11T20:10:15.739Z,12.8
2019-04-11T20:20:14.948Z,12.7
2019-04-11T20:30:14.165Z,13.1
2019-04-11T20:40:17.132Z,13.1
2019-04-11T20:50:12.576Z,13.2
2019-04-11T21:00:12.891Z,12.9
2019-04-11T21:09:03.760Z,13
2019-04-11T21:19:02.971Z,12.4
2019-04-11T21:29:02.187Z,13.3
2019-04-11T21:39:03.691Z,12.6
2019-04-11T21:49:00.606Z,12.6
2019-04-11T21:58:59.812Z,12.8
2019-04-11T22:08:59.020Z,13.1
2019-04-11T22:18:58.317Z,12.7
2019-04-11T22:28:57.613Z,13.2
2019-04-11T22:38:58.692Z,12.9
2019-04-11T22:48:56.202Z,12.7
2019-04-11T22:58:55.501Z,13.2
2019-04-11T23:08:54.752Z,13.2
2019-04-11T23:18:53.958Z,12.6
2019-04-11T23:28:53.164Z,12.9
2019-04-11T23:38:52.873Z,12.6
2019-04-11T23:48:54.525Z,13
2019-04-11T23:58:50.796Z,13.1
